createdAt,value
2023-04-11T00:00:11.045Z,3.30
2023-04-11T00:02:39.100Z,2.97
2023-04-11T00:05:09.885Z,3.40
2023-04-11T00:07:36.850Z,3.33
2023-04-11T00:10:04.346Z,2.90
2023-04-11T00:12:31.226Z,3.43
2023-04-11T00:14:58.091Z,3.07
2023-04-11T00:17:25.035Z,3.63
2023-04-11T00:19:53.350Z,3.70
2023-04-11T00:22:20.422Z,3.30
2023-04-11T00:24:47.451Z,4.30
2023-04-11T00:27:14.485Z,3.43
2023-04-11T00:29:41.466Z,3.50
2023-04-11T00:32:08.555Z,4.20
2023-04-11T00:34:35.822Z,3.60
2023-04-11T00:37:02.827Z,4.13
2023-04-11T00:39:33.912Z,3.90
2023-04-11T00:42:08.794Z,3.80
2023-04-11T00:44:36.436Z,4.60
2023-04-11T00:47:06.691Z,4.17
2023-04-11T00:49:34.401Z,3.70
2023-04-11T00:52:01.941Z,3.50
2023-04-11T00:54:31.758Z,4.40
2023-04-11T00:57:03.434Z,3.93
2023-04-11T00:59:32.315Z,5.17
2023-04-11T01:02:00.186Z,4.60
2023-04-11T01:04:29.405Z,5.97
2023-04-11T01:07:04.322Z,4.87
2023-04-11T01:09:33.835Z,5.70
2023-04-11T01:12:03.170Z,4.90
2023-04-11T01:14:30.669Z,4.67
2023-04-11T01:16:58.880Z,4.67
2023-04-11T01:19:26.730Z,4.93
2023-04-11T01:21:55.977Z,5.70
2023-04-11T01:24:23.013Z,5.53
2023-04-11T01:26:50.492Z,5.53
2023-04-11T01:29:17.552Z,5.70
2023-04-11T01:31:46.262Z,6.17
2023-04-11T01:34:14.847Z,5.77
2023-04-11T01:36:42.906Z,5.97
2023-04-11T01:39:11.066Z,6.60
2023-04-11T01:41:38.588Z,7.00
2023-04-11T01:44:06.138Z,8.03
2023-04-11T01:46:33.672Z,5.90
2023-04-11T01:49:03.374Z,6.23
2023-04-11T01:51:30.837Z,6.63
2023-04-11T01:53:57.765Z,6.37
2023-04-11T01:56:24.703Z,6.23
2023-04-11T01:58:51.779Z,7.73
2023-04-11T02:01:20.171Z,6.37
2023-04-11T02:03:47.741Z,7.20
2023-04-11T02:06:15.815Z,6.53
2023-04-11T02:08:43.705Z,7.60
2023-04-11T02:11:11.067Z,6.60
2023-04-11T02:13:38.149Z,6.40
2023-04-11T02:16:11.643Z,6.20
2023-04-11T02:18:38.719Z,7.00
2023-04-11T02:21:06.314Z,6.57
2023-04-11T02:23:33.987Z,7.47
2023-04-11T02:26:02.083Z,6.53
2023-04-11T02:28:29.416Z,6.60
2023-04-11T02:30:56.662Z,7.30
2023-04-11T02:33:23.914Z,7.63
2023-04-11T02:35:50.931Z,6.27
2023-04-11T02:38:17.908Z,7.37
2023-04-11T02:40:45.095Z,6.97
2023-04-11T02:43:12.312Z,6.47
2023-04-11T02:45:39.254Z,7.10
2023-04-11T02:48:06.389Z,6.57
2023-04-11T02:50:33.411Z,7.27
2023-04-11T02:53:00.438Z,6.13
2023-04-11T02:55:27.463Z,5.50
2023-04-11T02:57:54.313Z,6.23
2023-04-11T03:00:21.508Z,7.10
2023-04-11T03:02:49.716Z,6.80
2023-04-11T03:05:16.749Z,7.73
2023-04-11T03:07:44.593Z,5.93
2023-04-11T03:10:11.412Z,5.73
2023-04-11T03:12:38.938Z,5.10
2023-04-11T03:15:06.330Z,7.00
2023-04-11T03:17:34.046Z,7.30
2023-04-11T03:20:01.020Z,6.80
2023-04-11T03:22:27.944Z,6.83
2023-04-11T03:24:55.028Z,6.60
2023-04-11T03:27:21.871Z,7.10
2023-04-11T03:29:48.929Z,7.00
2023-04-11T03:32:15.899Z,6.37
2023-04-11T03:34:42.770Z,5.90
2023-04-11T03:37:09.748Z,5.87
2023-04-11T03:39:36.834Z,6.80
2023-04-11T03:42:03.934Z,6.37
2023-04-11T03:44:31.199Z,5.90
2023-04-11T03:46:58.308Z,6.37
2023-04-11T03:49:25.426Z,5.73
2023-04-11T03:51:52.416Z,6.30
2023-04-11T03:54:19.466Z,7.77
2023-04-11T03:56:46.980Z,5.63
2023-04-11T03:59:14.009Z,7.17
2023-04-11T04:01:41.179Z,6.33
2023-04-11T04:04:08.407Z,8.20
2023-04-11T04:06:36.057Z,8.10
2023-04-11T04:09:04.201Z,6.47
2023-04-11T04:11:31.381Z,6.40
2023-04-11T04:13:58.451Z,7.10
2023-04-11T04:16:25.785Z,6.43
2023-04-11T04:18:52.694Z,6.00
2023-04-11T04:21:19.568Z,5.30
2023-04-11T04:23:49.346Z,6.33
2023-04-11T04:26:17.959Z,7.13
2023-04-11T04:28:46.207Z,6.10
2023-04-11T04:31:15.184Z,6.17
2023-04-11T04:33:43.016Z,5.20
2023-04-11T04:36:12.551Z,5.17
2023-04-11T04:38:42.219Z,6.17
2023-04-11T04:41:15.232Z,5.40
2023-04-11T04:43:42.659Z,4.20
2023-04-11T04:46:10.144Z,3.70
2023-04-11T04:48:37.188Z,4.20
2023-04-11T04:51:05.625Z,4.23
2023-04-11T04:53:34.907Z,3.73
2023-04-11T04:56:02.504Z,6.60
2023-04-11T04:58:29.427Z,3.50
2023-04-11T05:00:56.589Z,4.70
2023-04-11T05:03:23.786Z,3.90
2023-04-11T05:05:50.926Z,4.77
2023-04-11T05:08:20.878Z,4.83
2023-04-11T05:10:48.149Z,4.20
2023-04-11T05:13:15.031Z,3.50
2023-04-11T05:15:48.413Z,4.60
2023-04-11T05:18:16.673Z,4.17
2023-04-11T05:20:43.648Z,3.30
2023-04-11T05:23:10.756Z,4.03
2023-04-11T05:25:37.871Z,3.73
2023-04-11T05:28:04.880Z,3.30
2023-04-11T05:30:31.990Z,3.93
2023-04-11T05:32:59.152Z,3.60
2023-04-11T05:35:26.098Z,4.67
2023-04-11T05:37:52.978Z,2.83
2023-04-11T05:40:20.174Z,4.10
2023-04-11T05:42:47.086Z,3.40
2023-04-11T05:45:14.014Z,3.40
2023-04-11T05:47:40.922Z,3.70
2023-04-11T05:50:08.762Z,4.33
2023-04-11T05:52:35.938Z,3.77
2023-04-11T05:55:04.714Z,3.47
2023-04-11T05:57:32.130Z,3.70
2023-04-11T06:00:02.236Z,3.17
2023-04-11T06:02:29.913Z,4.10
2023-04-11T06:04:57.177Z,2.90
2023-04-11T06:07:24.494Z,3.20
2023-04-11T06:09:51.693Z,2.90
2023-04-11T06:12:18.731Z,3.87
2023-04-11T06:14:48.784Z,4.40
2023-04-11T06:17:18.965Z,3.13
2023-04-11T06:19:45.993Z,3.27
2023-04-11T06:22:12.927Z,3.07
2023-04-11T06:24:40.816Z,3.60
2023-04-11T06:27:11.855Z,3.40
2023-04-11T06:29:40.305Z,4.40
2023-04-11T06:32:07.905Z,4.13
2023-04-11T06:34:35.289Z,3.27
2023-04-11T06:37:02.298Z,3.80
2023-04-11T06:39:29.146Z,3.60
2023-04-11T06:41:56.602Z,3.40
2023-04-11T06:44:23.578Z,3.07
2023-04-11T06:46:50.613Z,3.53
2023-04-11T06:49:19.161Z,3.00
2023-04-11T06:51:47.373Z,3.80
2023-04-11T06:54:14.385Z,4.13
2023-04-11T06:56:41.331Z,2.90
2023-04-11T06:59:08.334Z,3.27
2023-04-11T07:01:38.030Z,4.27
2023-04-11T07:04:08.973Z,3.20
2023-04-11T07:06:36.138Z,3.40
2023-04-11T07:09:04.424Z,3.63
2023-04-11T07:11:32.134Z,3.73
2023-04-11T07:14:00.169Z,3.73
2023-04-11T07:16:27.451Z,3.17
2023-04-11T07:18:55.715Z,4.10
2023-04-11T07:21:22.787Z,3.43
2023-04-11T07:23:49.857Z,3.63
2023-04-11T07:26:17.901Z,3.50
2023-04-11T07:28:45.170Z,3.30
2023-04-11T07:31:13.897Z,3.37
2023-04-11T07:33:44.097Z,3.07
2023-04-11T07:36:11.344Z,3.37
2023-04-11T07:38:38.431Z,3.90
2023-04-11T07:41:05.961Z,2.97
2023-04-11T07:43:33.166Z,3.63
2023-04-11T07:46:00.158Z,3.50
2023-04-11T07:48:28.219Z,3.60
2023-04-11T07:50:55.401Z,4.00
2023-04-11T07:53:22.684Z,4.93
2023-04-11T07:55:51.436Z,3.63
2023-04-11T07:58:18.366Z,3.63
2023-04-11T08:00:45.884Z,4.07
2023-04-11T08:03:13.462Z,3.53
2023-04-11T08:05:40.558Z,4.17
2023-04-11T08:08:07.773Z,3.33
2023-04-11T08:10:34.818Z,3.93
2023-04-11T08:13:02.077Z,3.97
2023-04-11T08:15:29.000Z,3.43
2023-04-11T08:17:56.641Z,3.63
2023-04-11T08:20:24.833Z,2.97
2023-04-11T08:22:51.815Z,3.40
2023-04-11T08:25:25.515Z,4.30
2023-04-11T08:27:52.594Z,3.00
2023-04-11T08:30:21.396Z,2.80
2023-04-11T08:32:48.388Z,3.47
2023-04-11T08:35:15.599Z,2.80
2023-04-11T08:37:44.408Z,3.27
2023-04-11T08:40:11.949Z,3.70
2023-04-11T08:42:38.845Z,3.87
2023-04-11T08:45:08.856Z,3.80
2023-04-11T08:47:41.491Z,2.87
2023-04-11T08:50:10.044Z,2.97
2023-04-11T08:52:39.959Z,3.10
2023-04-11T08:55:07.106Z,2.90
2023-04-11T08:57:34.828Z,3.47
2023-04-11T09:00:22.277Z,3.03
2023-04-11T09:02:58.298Z,2.60
2023-04-11T09:05:31.847Z,3.13
2023-04-11T09:08:06.263Z,3.07
2023-04-11T09:10:33.366Z,3.20
2023-04-11T09:13:00.879Z,2.77
2023-04-11T09:15:30.934Z,2.57
2023-04-11T09:18:00.631Z,3.00
2023-04-11T09:20:31.359Z,3.17
2023-04-11T09:23:01.434Z,3.23
2023-04-11T09:25:28.802Z,2.70
2023-04-11T09:28:13.834Z,2.57
2023-04-11T09:30:52.381Z,2.30
2023-04-11T09:33:22.523Z,2.10
2023-04-11T09:35:52.772Z,2.93
2023-04-11T09:38:29.119Z,2.10
2023-04-11T09:40:56.713Z,2.37
2023-04-11T09:43:24.187Z,2.80
2023-04-11T09:46:11.861Z,2.37
2023-04-11T09:48:46.607Z,3.10
2023-04-11T09:53:57.622Z,2.83
2023-04-11T09:56:26.640Z,4.00
2023-04-11T09:58:56.482Z,2.80
2023-04-11T10:01:24.709Z,2.57
2023-04-11T10:03:52.957Z,2.70
2023-04-11T10:06:32.007Z,3.00
2023-04-11T10:09:11.795Z,2.20
2023-04-11T10:11:46.210Z,3.23
2023-04-11T10:14:43.132Z,3.30
2023-04-11T10:17:23.550Z,2.43
2023-04-11T10:19:56.973Z,2.80
2023-04-11T10:22:46.854Z,2.70
2023-04-11T10:25:26.845Z,2.87
2023-04-11T10:28:01.205Z,3.77
2023-04-11T10:30:40.951Z,3.00
2023-04-11T10:33:22.121Z,3.27
2023-04-11T10:36:12.890Z,2.90
2023-04-11T10:38:49.243Z,2.63
2023-04-11T10:41:27.537Z,3.73
2023-04-11T10:44:13.819Z,2.90
2023-04-11T10:47:01.798Z,2.97
2023-04-11T10:49:38.049Z,2.80
2023-04-11T10:52:17.791Z,2.73
2023-04-11T10:54:48.633Z,2.73
2023-04-11T10:57:15.675Z,2.60
2023-04-11T10:59:42.760Z,2.60
2023-04-11T11:02:10.142Z,2.40
2023-04-11T11:04:39.284Z,2.87
2023-04-11T11:07:07.756Z,3.13
2023-04-11T11:09:35.339Z,3.10
2023-04-11T11:12:16.127Z,3.10
2023-04-11T11:14:47.478Z,2.50
2023-04-11T11:17:16.735Z,2.30
2023-04-11T11:19:48.048Z,2.77
2023-04-11T11:22:16.565Z,2.70
2023-04-11T11:24:44.580Z,2.77
2023-04-11T11:27:22.578Z,2.80
2023-04-11T11:29:50.769Z,2.70
2023-04-11T11:32:22.790Z,2.73
2023-04-11T11:34:49.643Z,3.00
2023-04-11T11:37:16.592Z,2.60
2023-04-11T11:39:44.211Z,2.70
2023-04-11T11:42:11.573Z,2.23
2023-04-11T11:44:38.840Z,1.93
2023-04-11T11:47:15.652Z,2.57
2023-04-11T11:49:52.748Z,2.30
2023-04-11T11:52:40.609Z,2.40
2023-04-11T11:55:28.006Z,2.47
2023-04-11T11:57:58.955Z,2.60
2023-04-11T12:00:27.630Z,2.57
2023-04-11T12:02:56.461Z,2.90
2023-04-11T12:05:30.521Z,2.20
2023-04-11T12:07:59.910Z,2.10
2023-04-11T12:10:45.380Z,2.20
2023-04-11T12:13:15.626Z,2.73
2023-04-11T12:15:50.757Z,2.50
2023-04-11T12:18:21.413Z,1.90
2023-04-11T12:20:49.356Z,3.23
2023-04-11T12:23:17.049Z,2.37
2023-04-11T12:25:44.286Z,2.17
2023-04-11T12:28:11.508Z,2.40
2023-04-11T12:30:39.268Z,2.47
2023-04-11T12:33:06.482Z,2.30
2023-04-11T12:35:33.782Z,2.07
2023-04-11T12:38:01.699Z,2.17
2023-04-11T12:40:30.029Z,1.50
2023-04-11T12:42:57.754Z,1.53
2023-04-11T12:45:26.131Z,1.97
2023-04-11T12:47:53.954Z,1.77
2023-04-11T12:50:23.901Z,1.73
2023-04-11T12:52:52.257Z,1.80
2023-04-11T12:55:19.681Z,2.13
2023-04-11T12:57:46.676Z,1.73
2023-04-11T13:00:14.252Z,2.30
2023-04-11T13:02:44.558Z,1.90
2023-04-11T13:05:14.592Z,1.97
2023-04-11T13:07:42.737Z,1.97
2023-04-11T13:10:10.715Z,1.77
2023-04-11T13:12:41.701Z,2.47
2023-04-11T13:15:12.433Z,2.10
2023-04-11T13:17:40.002Z,1.90
2023-04-11T13:20:10.710Z,1.90
2023-04-11T13:22:42.218Z,1.90
2023-04-11T13:25:10.289Z,2.13
2023-04-11T13:27:39.495Z,1.57
2023-04-11T13:30:07.848Z,2.47
2023-04-11T13:32:34.824Z,1.80
2023-04-11T13:35:02.268Z,1.70
2023-04-11T13:37:29.340Z,1.87
2023-04-11T13:39:56.277Z,2.10
2023-04-11T13:42:23.277Z,1.60
2023-04-11T13:44:50.154Z,1.77
2023-04-11T13:47:17.054Z,2.20
2023-04-11T13:49:44.554Z,1.20
2023-04-11T13:52:11.459Z,2.50
2023-04-11T13:54:39.067Z,1.40
2023-04-11T13:57:09.353Z,1.60
2023-04-11T13:59:36.478Z,2.00
2023-04-11T14:02:03.465Z,1.50
2023-04-11T14:04:31.344Z,1.60
2023-04-11T14:06:58.368Z,1.70
2023-04-11T14:09:25.453Z,1.90
2023-04-11T14:11:52.887Z,1.60
2023-04-11T14:14:20.004Z,1.80
2023-04-11T14:16:47.069Z,1.80
2023-04-11T14:19:14.589Z,1.60
2023-04-11T14:21:42.055Z,1.77
2023-04-11T14:24:09.641Z,1.63
2023-04-11T14:26:36.576Z,1.70
2023-04-11T14:29:04.415Z,1.40
2023-04-11T14:31:31.829Z,1.80
2023-04-11T14:33:59.025Z,1.70
2023-04-11T14:36:27.966Z,1.40
2023-04-11T14:38:55.087Z,1.50
2023-04-11T14:41:22.020Z,1.60
2023-04-11T14:43:48.931Z,1.80
2023-04-11T14:46:16.180Z,1.83
2023-04-11T14:48:43.138Z,1.70
2023-04-11T14:51:10.526Z,1.50
2023-04-11T14:53:37.487Z,1.47
2023-04-11T14:56:06.208Z,2.00
2023-04-11T14:58:33.397Z,1.70
2023-04-11T15:01:00.351Z,1.60
2023-04-11T15:03:27.763Z,1.40
2023-04-11T15:05:54.989Z,1.70
2023-04-11T15:08:21.808Z,1.70
2023-04-11T15:10:54.285Z,1.80
2023-04-11T15:13:22.530Z,1.63
2023-04-11T15:15:49.242Z,1.80
2023-04-11T15:18:28.742Z,1.87
2023-04-11T15:20:57.642Z,1.77
2023-04-11T15:23:24.669Z,1.60
2023-04-11T15:25:56.702Z,2.20
2023-04-11T15:28:24.731Z,1.40
2023-04-11T15:30:53.685Z,1.80
2023-04-11T15:33:22.090Z,1.80
2023-04-11T15:35:48.836Z,1.93
2023-04-11T15:38:17.440Z,2.00
2023-04-11T15:40:44.427Z,1.83
2023-04-11T15:43:11.598Z,1.80
2023-04-11T15:45:39.659Z,1.93
2023-04-11T15:48:06.748Z,1.97
2023-04-11T15:50:33.899Z,1.50
2023-04-11T15:53:00.648Z,2.40
2023-04-11T15:55:27.500Z,2.37
2023-04-11T15:57:54.241Z,2.47
2023-04-11T16:00:22.472Z,2.20
2023-04-11T16:02:50.396Z,2.10
2023-04-11T16:05:17.848Z,1.97
2023-04-11T16:07:44.821Z,2.20
2023-04-11T16:10:13.529Z,2.20
2023-04-11T16:12:40.205Z,2.30
2023-04-11T16:15:07.745Z,2.13
2023-04-11T16:17:34.561Z,2.17
2023-04-11T16:20:01.380Z,2.20
2023-04-11T16:22:28.278Z,2.13
2023-04-11T16:24:56.311Z,2.23
2023-04-11T16:27:23.111Z,2.40
2023-04-11T16:29:51.027Z,2.30
2023-04-11T16:32:17.761Z,2.43
2023-04-11T16:34:44.387Z,2.53
2023-04-11T16:37:11.141Z,2.70
2023-04-11T16:39:37.873Z,2.10
2023-04-11T16:42:04.686Z,2.47
2023-04-11T16:44:31.351Z,2.67
2023-04-11T16:46:58.472Z,2.20
2023-04-11T16:49:25.235Z,1.90
2023-04-11T16:51:52.367Z,2.40
2023-04-11T16:54:19.011Z,2.63
2023-04-11T16:56:47.348Z,2.50
2023-04-11T16:59:14.437Z,2.40
2023-04-11T17:01:42.091Z,2.43
2023-04-11T17:04:09.319Z,2.40
2023-04-11T17:06:37.140Z,2.70
2023-04-11T17:09:06.205Z,2.70
2023-04-11T17:11:34.063Z,2.03
2023-04-11T17:14:01.591Z,3.13
2023-04-11T17:16:28.394Z,2.87
2023-04-11T17:18:55.249Z,2.70
2023-04-11T17:21:21.957Z,2.13
2023-04-11T17:23:48.696Z,2.70
2023-04-11T17:26:16.168Z,2.47
2023-04-11T17:28:43.831Z,2.53
2023-04-11T17:31:12.770Z,2.80
2023-04-11T17:33:40.065Z,2.60
2023-04-11T17:36:07.213Z,2.70
2023-04-11T17:38:34.061Z,2.10
2023-04-11T17:41:13.437Z,2.53
2023-04-11T17:43:41.453Z,2.23
2023-04-11T17:46:09.055Z,2.60
2023-04-11T17:48:36.500Z,2.33
2023-04-11T17:51:06.975Z,1.90
2023-04-11T17:53:34.094Z,2.50
2023-04-11T17:56:05.768Z,3.07
2023-04-11T17:58:33.153Z,2.17
2023-04-11T18:01:00.071Z,2.63
2023-04-11T18:03:26.971Z,3.07
2023-04-11T18:05:54.770Z,2.70
2023-04-11T18:08:29.931Z,2.00
2023-04-11T18:11:04.170Z,2.23
2023-04-11T18:13:31.597Z,2.80
2023-04-11T18:15:58.510Z,2.83
2023-04-11T18:18:25.590Z,2.40
2023-04-11T18:20:52.314Z,2.50
2023-04-11T18:23:19.006Z,2.50
2023-04-11T18:25:46.049Z,2.83
2023-04-11T18:28:12.783Z,2.50
2023-04-11T18:30:39.603Z,2.80
2023-04-11T18:33:07.034Z,2.63
2023-04-11T18:35:33.820Z,2.50
2023-04-11T18:38:00.894Z,2.20
2023-04-11T18:40:28.342Z,2.63
2023-04-11T18:42:56.446Z,2.30
2023-04-11T18:45:23.949Z,2.47
2023-04-11T18:47:51.272Z,3.17
2023-04-11T18:50:18.843Z,2.10
2023-04-11T18:52:46.685Z,2.83
2023-04-11T18:55:15.038Z,3.20
2023-04-11T18:57:46.822Z,2.93
2023-04-11T19:00:18.726Z,2.90
2023-04-11T19:02:47.483Z,2.67
2023-04-11T19:05:14.854Z,2.67
2023-04-11T19:07:43.319Z,3.40
2023-04-11T19:10:11.528Z,2.90
2023-04-11T19:12:39.034Z,3.57
2023-04-11T19:15:07.855Z,3.13
2023-04-11T19:17:38.862Z,2.70
2023-04-11T19:20:12.909Z,2.97
2023-04-11T19:22:40.968Z,3.27
2023-04-11T19:25:12.097Z,2.57
2023-04-11T19:27:42.475Z,2.70
2023-04-11T19:30:11.143Z,2.50
2023-04-11T19:32:41.299Z,3.70
2023-04-11T19:35:10.692Z,3.93
2023-04-11T19:37:37.906Z,3.30
2023-04-11T19:40:11.074Z,2.53
2023-04-11T19:42:39.701Z,3.53
2023-04-11T19:45:11.531Z,2.70
2023-04-11T19:47:42.397Z,3.00
2023-04-11T19:50:13.248Z,3.10
2023-04-11T19:52:41.341Z,3.43
2023-04-11T19:55:09.376Z,2.67
2023-04-11T19:57:38.563Z,3.10
2023-04-11T20:00:11.745Z,3.00
2023-04-11T20:02:46.632Z,3.10
2023-04-11T20:05:15.543Z,3.10
2023-04-11T20:07:44.046Z,2.97
2023-04-11T20:10:12.135Z,3.13
2023-04-11T20:12:38.921Z,3.70
2023-04-11T20:15:06.193Z,3.57
2023-04-11T20:17:33.578Z,3.50
2023-04-11T20:20:05.428Z,3.43
2023-04-11T20:22:32.476Z,3.67
2023-04-11T20:24:59.376Z,3.10
2023-04-11T20:27:27.967Z,3.17
2023-04-11T20:29:56.468Z,3.40
2023-04-11T20:32:23.157Z,3.83
2023-04-11T20:34:49.881Z,2.80
2023-04-11T20:37:18.778Z,3.27
2023-04-11T20:39:46.411Z,3.20
2023-04-11T20:42:13.627Z,3.20
2023-04-11T20:44:41.801Z,3.10
2023-04-11T20:47:09.091Z,2.60
2023-04-11T20:49:36.069Z,3.00
2023-04-11T20:52:02.941Z,2.80
2023-04-11T20:54:29.932Z,3.00
2023-04-11T20:56:56.747Z,3.50
2023-04-11T20:59:23.389Z,2.80
2023-04-11T21:01:50.251Z,3.00
2023-04-11T21:04:18.607Z,2.70
2023-04-11T21:06:45.980Z,3.63
2023-04-11T21:09:12.802Z,3.27
2023-04-11T21:11:39.508Z,2.53
2023-04-11T21:14:06.683Z,2.60
2023-04-11T21:16:34.425Z,3.20
2023-04-11T21:19:01.237Z,3.00
2023-04-11T21:21:28.231Z,2.70
2023-04-11T21:23:55.460Z,3.10
2023-04-11T21:26:23.358Z,2.80
2023-04-11T21:28:50.024Z,2.73
2023-04-11T21:31:16.860Z,3.00
2023-04-11T21:33:46.125Z,2.53
2023-04-11T21:36:12.944Z,2.90
2023-04-11T21:38:39.635Z,3.07
2023-04-11T21:41:06.564Z,2.50
2023-04-11T21:43:33.492Z,2.53
2023-04-11T21:46:00.532Z,2.80
2023-04-11T21:48:27.524Z,3.73
2023-04-11T21:50:54.372Z,2.60
2023-04-11T21:53:21.321Z,2.40
2023-04-11T21:55:48.166Z,2.97
2023-04-11T21:58:27.993Z,3.33
2023-04-11T22:00:56.341Z,3.37
2023-04-11T22:03:23.793Z,3.40
2023-04-11T22:05:52.336Z,3.03
2023-04-11T22:08:20.095Z,3.30
2023-04-11T22:10:48.300Z,3.13
2023-04-11T22:13:17.567Z,3.57
2023-04-11T22:15:45.901Z,3.50
2023-04-11T22:18:13.267Z,3.13
2023-04-11T22:20:43.652Z,3.27
2023-04-11T22:23:13.300Z,3.20
2023-04-11T22:25:43.901Z,3.67
2023-04-11T22:28:18.285Z,3.43
2023-04-11T22:30:46.589Z,3.83
2023-04-11T22:33:17.094Z,3.80
2023-04-11T22:35:45.010Z,4.07
2023-04-11T22:38:12.054Z,3.80
2023-04-11T22:40:40.256Z,3.50
2023-04-11T22:43:07.282Z,4.43
2023-04-11T22:45:36.066Z,3.37
2023-04-11T22:48:05.895Z,4.30
2023-04-11T22:50:37.321Z,5.20
2023-04-11T22:53:04.855Z,3.97
2023-04-11T22:55:35.781Z,4.40
2023-04-11T22:58:03.279Z,4.40
2023-04-11T23:00:30.505Z,4.53
2023-04-11T23:02:59.787Z,4.53
2023-04-11T23:05:26.925Z,4.17
2023-04-11T23:07:53.872Z,4.83
2023-04-11T23:10:20.750Z,3.67
2023-04-11T23:12:49.661Z,4.03
2023-04-11T23:15:17.375Z,4.10
2023-04-11T23:17:45.142Z,3.90
2023-04-11T23:20:13.819Z,4.13
2023-04-11T23:22:42.595Z,4.37
2023-04-11T23:25:17.014Z,3.83
2023-04-11T23:27:45.132Z,3.67
2023-04-11T23:30:12.863Z,4.43
2023-04-11T23:32:40.168Z,3.40
2023-04-11T23:35:08.340Z,3.67
2023-04-11T23:37:35.279Z,4.57
2023-04-11T23:40:10.826Z,3.80
2023-04-11T23:42:38.644Z,4.63
2023-04-11T23:45:10.635Z,4.30
2023-04-11T23:47:38.661Z,4.80
2023-04-11T23:50:06.047Z,3.80
2023-04-11T23:52:33.721Z,4.37
2023-04-11T23:55:00.616Z,3.77
2023-04-11T23:57:27.493Z,3.63
2023-04-11T23:59:54.375Z,3.80
